Nearby METAR Reports

 

KCLM - Port Angeles, Washington, USA
Distance from station: W 17mi, 27km
Updated: Wed, 23-Aug-2017 9:53am PDT
Clear
Clear
 Wind from varies
Wind: varies 6 mph , 9 km/h
Temperature: 64°F , 18°C
Dew Point: 55°F , 13°C
Humidity: 73%
Barometer: 30.05 inHg , 1017.6 hPa
Clouds: Clear
Visibility: 10 miles , 16 km
2017/08/23 16:53 KCLM 231653Z AUTO VRB05KT 10SM CLR 18/13 A3005 RMK AO2 SLP174 T01780128
CWQK - Race Rocks Autob, British Columbia, Canada
Distance from station: NW 23mi, 36km
Updated: Wed, 23-Aug-2017 10:00am PDT

 Wind from WSW
Wind: WSW 16 mph , 26 km/h
Temperature: 55°F , 13°C
2017/08/23 17:00 CWQK 231700Z AUTO 25014KT 13/ RMK AO1 PK WND 25017/1603 SLP168 T0132 50000
 
KNUW - Whidbey Is. Nas, Washington, USA
Distance from station: NE 28mi, 45km
Updated: Wed, 23-Aug-2017 9:56am PDT
Mostly cloudy
Mostly cloudy
 Wind from WNW
Wind: WNW 7 mph , 11 km/h
Temperature: 63°F , 17°C
Dew Point: 52°F , 11°C
Humidity: 68%
Barometer: 30.08 inHg , 1018.6 hPa
Clouds: Mostly cloudy
Visibility: 10 miles , 16 km
Cloud details: Few Clouds 1500 ft
Few Clouds 3500 ft
Partly cloudy 10000 ft
Mostly cloudy 25000 ft
2017/08/23 16:56 KNUW 231656Z 29006KT 10SM FEW015 FEW035 SCT100 BKN250 17/11 A3008 RMK AO2 SLP184 T01720111
KFHR - Friday Harbor, Washington, USA
Distance from station: N 29mi, 46km
Updated: Wed, 23-Aug-2017 9:53am PDT
Clear
Clear
 Wind from SSW
Wind: SSW 10 mph , 17 km/h
Temperature: 64°F , 18°C
Dew Point: 57°F , 14°C
Humidity: 78%
Barometer: 30.04 inHg , 1017.3 hPa
Clouds: Clear
Visibility: 10 miles , 16 km
2017/08/23 16:53 KFHR 231653Z AUTO 20009KT 10SM CLR 18/14 A3004 RMK AO2 SLP171 T01780139
 
KBVS - Burlington/Mt V, Washington, USA
Distance from station: NE 41mi, 66km
Updated: Wed, 23-Aug-2017 10:15am PDT
Clear
Clear
 Wind from varies
Wind: varies 6 mph , 9 km/h
Temperature: 70°F , 21°C
Dew Point: 57°F , 14°C
Humidity: 64%
Barometer: 30.03 inHg , 1016.9 hPa
Clouds: Clear
Visibility: 9 miles , 14 km
2017/08/23 17:15 KBVS 231715Z AUTO VRB05KT 9SM CLR 21/14 A3003 RMK A01
KPAE - Everett, Washington, USA
Distance from station: ESE 42mi, 67km
Updated: Wed, 23-Aug-2017 9:53am PDT
Clear
Clear
 Wind from SSW
Wind: SSW 7 mph , 11 km/h
Temperature: 63°F , 17°C
Dew Point: 57°F , 14°C
Humidity: 83%
Barometer: 30.05 inHg , 1017.6 hPa
Clouds: Clear
Visibility: 10 miles , 16 km
2017/08/23 16:53 KPAE 231653Z 21006KT 10SM CLR 17/14 A3005 RMK AO2 SLP176 T01720139
 
KORS - Eastsound/Orcas, Washington, USA
Distance from station: NNE 42mi, 68km
Updated: Wed, 23-Aug-2017 10:15am PDT
Clear
Clear
 Wind from S
Wind: S 12 mph , 19 km/h
Temperature: 64°F , 18°C
Dew Point: 55°F , 13°C
Humidity: 73%
Barometer: 30.01 inHg , 1016.3 hPa
Clouds: Clear
Visibility: 10 miles , 16 km
2017/08/23 17:15 KORS 231715Z AUTO 17010KT 10SM CLR 18/13 A3001 RMK AO2
KAWO - Arlington Muni, Washington, USA
Distance from station: E 45mi, 72km
Updated: Wed, 23-Aug-2017 9:56am PDT
Clear
Clear
 Wind from varies
Wind: varies 5 mph , 7 km/h
Temperature: 70°F , 21°C
Dew Point: 55°F , 13°C
Humidity: 60%
Barometer: 30.04 inHg , 1017.3 hPa
Clouds: Clear
Visibility: 10 miles , 16 km
2017/08/23 16:56 KAWO 231656Z AUTO VRB04KT 10SM CLR 21/13 A3004 RMK AO2 SLP175 T02060133
 
KPWT - Bremerton Ntnl, Washington, USA
Distance from station: SSE 46mi, 73km
Updated: Wed, 23-Aug-2017 9:56am PDT
Overcast
Overcast
 Wind from S
Wind: S 6 mph , 9 km/h
Temperature: 61°F , 16°C
Dew Point: 57°F , 14°C
Humidity: 88%
Barometer: 30.06 inHg , 1017.9 hPa
Clouds: Overcast
Cloud details: Overcast 1400 ft
2017/08/23 16:56 KPWT 231656Z AUTO 19005KT OVC014 16/14 A3006 RMK AO2 SLP194 T01610139 PWINO $